Time;durP1;ratioP1;P1;durP2;ratioP2;P2;SDS_P1;SDS_P2;PMS_P1;PMS_P2;Temp;Humidity;BMP_temperature;BMP_pressure;BME280_temperature;BME280_humidity;BME280_pressure;Samples;Min_cycle;Max_cycle;Signal;HPM_P1;HPM_P2
2023/10/31 00:00:03;;;;;;;3.47;2.50;;;;;;;;;;5024406;28;20189;-81
2023/10/31 00:02:31;;;;;;;3.83;2.30;;;;;;;;;;5029337;28;20206;-81
2023/10/31 00:04:58;;;;;;;2.80;1.87;;;;;;;;;;5026378;28;20285;-80
2023/10/31 00:07:24;;;;;;;2.27;1.67;;;;;;;;;;5033452;28;20182;-80
2023/10/31 00:09:50;;;;;;;1.80;1.50;;;;;;;;;;5033552;28;20179;-81
2023/10/31 00:12:16;;;;;;;1.53;1.40;;;;;;;;;;5022965;28;20328;-81
2023/10/31 00:14:42;;;;;;;2.33;1.20;;;;;;;;;;5030226;28;20241;-80
2023/10/31 00:17:08;;;;;;;1.67;1.20;;;;;;;;;;5024474;28;20662;-80
2023/10/31 00:19:34;;;;;;;3.33;1.70;;;;;;;;;;5030452;28;20215;-80
2023/10/31 00:22:01;;;;;;;2.40;1.30;;;;;;;;;;5031355;28;20223;-80
2023/10/31 00:24:27;;;;;;;2.23;1.17;;;;;;;;;;5030555;28;20561;-80
2023/10/31 00:26:53;;;;;;;1.73;0.97;;;;;;;;;;5029560;28;20294;-81
2023/10/31 00:29:19;;;;;;;1.00;0.90;;;;;;;;;;5031671;28;20191;-80
2023/10/31 00:31:45;;;;;;;3.77;1.33;;;;;;;;;;5032334;28;20209;-80
2023/10/31 00:34:11;;;;;;;2.70;1.03;;;;;;;;;;5030228;28;20276;-80
2023/10/31 00:36:38;;;;;;;1.03;0.93;;;;;;;;;;5025775;28;20553;-81
2023/10/31 00:39:04;;;;;;;5.80;2.20;;;;;;;;;;5015882;28;20190;-82
2023/10/31 00:41:30;;;;;;;1.93;1.40;;;;;;;;;;5032357;28;20211;-81
2023/10/31 00:43:57;;;;;;;4.90;2.50;;;;;;;;;;5028681;28;20212;-80
2023/10/31 00:46:23;;;;;;;3.83;2.00;;;;;;;;;;5013428;28;20190;-80
2023/10/31 00:48:49;;;;;;;2.73;1.50;;;;;;;;;;5012646;28;20215;-80
2023/10/31 00:51:15;;;;;;;4.30;1.20;;;;;;;;;;5031235;28;20218;-81
2023/10/31 00:53:41;;;;;;;2.00;1.00;;;;;;;;;;5030782;28;20186;-80
2023/10/31 00:56:08;;;;;;;1.13;1.00;;;;;;;;;;5029825;28;20196;-80
2023/10/31 00:58:34;;;;;;;1.17;1.07;;;;;;;;;;5030381;28;20219;-79
2023/10/31 01:01:00;;;;;;;2.10;1.43;;;;;;;;;;5030819;28;20203;-81
2023/10/31 01:03:26;;;;;;;1.83;1.40;;;;;;;;;;5015161;28;20186;-81
2023/10/31 01:05:52;;;;;;;2.47;1.60;;;;;;;;;;5045827;28;20651;-82
2023/10/31 01:08:18;;;;;;;3.13;1.30;;;;;;;;;;5032818;28;20183;-80
2023/10/31 01:10:46;;;;;;;2.73;1.37;;;;;;;;;;5027380;28;20190;-81
2023/10/31 01:13:12;;;;;;;3.03;1.70;;;;;;;;;;5006165;28;20243;-82
2023/10/31 01:15:38;;;;;;;2.50;1.70;;;;;;;;;;5028174;28;20561;-83
2023/10/31 01:18:05;;;;;;;2.77;1.50;;;;;;;;;;5030216;28;20183;-82
2023/10/31 01:20:32;;;;;;;2.67;1.37;;;;;;;;;;5028844;28;20218;-80
2023/10/31 01:22:58;;;;;;;21.30;8.87;;;;;;;;;;5022058;28;20253;-80
2023/10/31 01:25:24;;;;;;;9.77;4.93;;;;;;;;;;5029730;28;20184;-80
2023/10/31 01:27:51;;;;;;;16.13;7.30;;;;;;;;;;5027459;28;20600;-80
2023/10/31 01:30:17;;;;;;;19.40;9.53;;;;;;;;;;5027735;28;20179;-80
2023/10/31 01:32:43;;;;;;;12.40;6.67;;;;;;;;;;5025951;28;20622;-80
2023/10/31 01:35:09;;;;;;;11.30;5.93;;;;;;;;;;5030822;28;20183;-80
2023/10/31 01:37:36;;;;;;;10.23;5.47;;;;;;;;;;5028684;28;20274;-80
2023/10/31 01:40:03;;;;;;;10.10;4.63;;;;;;;;;;5028321;28;20186;-80
2023/10/31 01:42:29;;;;;;;17.30;6.37;;;;;;;;;;5025005;28;20238;-81
2023/10/31 01:44:56;;;;;;;3.50;2.37;;;;;;;;;;5028621;28;20267;-80
2023/10/31 01:47:24;;;;;;;3.77;1.97;;;;;;;;;;5025079;28;20183;-81
2023/10/31 01:49:51;;;;;;;2.53;1.60;;;;;;;;;;5028388;28;20270;-80
2023/10/31 01:52:17;;;;;;;4.43;1.80;;;;;;;;;;5029887;28;20281;-80
2023/10/31 01:54:44;;;;;;;2.97;1.80;;;;;;;;;;5011443;28;20202;-81
2023/10/31 01:57:11;;;;;;;3.60;1.43;;;;;;;;;;5031336;28;20197;-80
2023/10/31 01:59:37;;;;;;;1.97;1.30;;;;;;;;;;5028121;28;20187;-83
2023/10/31 02:02:04;;;;;;;3.13;1.30;;;;;;;;;;5009300;28;20218;-83
2023/10/31 02:04:31;;;;;;;3.67;1.80;;;;;;;;;;5023441;28;20183;-83
2023/10/31 02:06:57;;;;;;;9.67;4.53;;;;;;;;;;5028261;28;20185;-80
2023/10/31 02:09:24;;;;;;;8.80;4.60;;;;;;;;;;5029854;28;20182;-80
2023/10/31 02:11:50;;;;;;;5.37;3.47;;;;;;;;;;5029005;28;20285;-80
2023/10/31 02:14:17;;;;;;;3.27;2.23;;;;;;;;;;5024879;28;20660;-80
2023/10/31 02:16:43;;;;;;;8.93;4.90;;;;;;;;;;5033517;28;20182;-81
2023/10/31 02:19:09;;;;;;;7.73;4.70;;;;;;;;;;5029326;28;20213;-80
2023/10/31 02:21:39;;;;;;;6.63;3.40;;;;;;;;;;5029139;28;20217;-80
2023/10/31 02:24:06;;;;;;;3.90;2.50;;;;;;;;;;5039383;28;20182;-80
2023/10/31 02:26:33;;;;;;;2.67;2.10;;;;;;;;;;5029341;28;20245;-81
2023/10/31 02:29:00;;;;;;;4.73;2.97;;;;;;;;;;5029244;28;20188;-83
2023/10/31 02:31:27;;;;;;;3.23;1.57;;;;;;;;;;5030308;28;20678;-80
2023/10/31 02:33:53;;;;;;;1.80;1.30;;;;;;;;;;5012425;28;20222;-80
2023/10/31 02:36:19;;;;;;;3.00;1.20;;;;;;;;;;5031428;28;20190;-80
2023/10/31 02:38:46;;;;;;;3.17;1.43;;;;;;;;;;5027851;28;20212;-80
2023/10/31 02:41:12;;;;;;;2.70;1.30;;;;;;;;;;5030302;28;20216;-81
2023/10/31 02:43:39;;;;;;;1.73;1.40;;;;;;;;;;5032240;28;20186;-81
2023/10/31 02:46:05;;;;;;;2.60;1.50;;;;;;;;;;5027327;28;20190;-81
2023/10/31 02:48:37;;;;;;;2.20;1.50;;;;;;;;;;5030646;28;20658;-79
2023/10/31 02:51:05;;;;;;;3.23;1.50;;;;;;;;;;5023508;28;20187;-80
2023/10/31 02:53:31;;;;;;;3.43;1.67;;;;;;;;;;5030062;28;20677;-80
2023/10/31 02:55:57;;;;;;;3.57;1.70;;;;;;;;;;5028680;28;20328;-80
2023/10/31 02:58:23;;;;;;;2.73;1.47;;;;;;;;;;5023845;28;20269;-80
2023/10/31 03:00:50;;;;;;;5.13;1.87;;;;;;;;;;5028062;28;20215;-80
2023/10/31 03:03:16;;;;;;;3.23;1.40;;;;;;;;;;5028119;28;20733;-80
2023/10/31 03:05:42;;;;;;;2.03;1.57;;;;;;;;;;5027705;28;20197;-80
2023/10/31 03:08:10;;;;;;;2.90;1.77;;;;;;;;;;5028125;28;20216;-80
2023/10/31 03:10:36;;;;;;;2.00;1.60;;;;;;;;;;5011279;28;20281;-81
2023/10/31 03:13:02;;;;;;;1.47;1.37;;;;;;;;;;5030805;28;20210;-81
2023/10/31 03:15:29;;;;;;;2.20;1.33;;;;;;;;;;5033133;28;20190;-81
2023/10/31 03:17:55;;;;;;;1.63;1.20;;;;;;;;;;5026616;28;20741;-81
2023/10/31 03:20:21;;;;;;;2.73;1.50;;;;;;;;;;5016806;28;20206;-80
2023/10/31 03:22:48;;;;;;;1.67;1.20;;;;;;;;;;5033136;28;20209;-80
2023/10/31 03:25:14;;;;;;;1.83;1.20;;;;;;;;;;5026970;28;20185;-80
2023/10/31 03:27:40;;;;;;;1.43;1.10;;;;;;;;;;5032320;28;20194;-80
2023/10/31 03:30:06;;;;;;;1.30;1.20;;;;;;;;;;5031080;28;20273;-80
2023/10/31 03:32:33;;;;;;;2.03;1.40;;;;;;;;;;5031289;28;20206;-80
2023/10/31 03:34:59;;;;;;;1.63;1.40;;;;;;;;;;5030990;28;20235;-81
2023/10/31 03:37:25;;;;;;;1.93;1.60;;;;;;;;;;4996887;28;20194;-81
2023/10/31 03:39:51;;;;;;;3.27;1.50;;;;;;;;;;5030289;28;20186;-82
2023/10/31 03:42:17;;;;;;;3.60;1.70;;;;;;;;;;5029767;28;20214;-81
2023/10/31 03:44:43;;;;;;;3.17;1.40;;;;;;;;;;5027326;28;20190;-82
2023/10/31 03:47:09;;;;;;;1.10;1.00;;;;;;;;;;5015115;28;20567;-81
2023/10/31 03:49:38;;;;;;;1.67;1.10;;;;;;;;;;5031864;28;20188;-81
2023/10/31 03:52:04;;;;;;;1.57;1.30;;;;;;;;;;5033199;28;20214;-81
2023/10/31 03:54:31;;;;;;;1.93;1.20;;;;;;;;;;5025944;28;20195;-80
2023/10/31 03:56:57;;;;;;;1.50;1.20;;;;;;;;;;5032919;28;20194;-80
2023/10/31 03:59:25;;;;;;;1.53;1.30;;;;;;;;;;5032823;28;20187;-80
2023/10/31 04:01:51;;;;;;;2.73;1.20;;;;;;;;;;5012872;28;20237;-80
2023/10/31 04:04:17;;;;;;;2.17;1.50;;;;;;;;;;5025276;28;20179;-79
2023/10/31 04:06:43;;;;;;;3.03;1.57;;;;;;;;;;5027563;28;20189;-81
2023/10/31 04:09:10;;;;;;;2.50;1.60;;;;;;;;;;5030360;28;20191;-80
2023/10/31 04:11:36;;;;;;;4.47;1.70;;;;;;;;;;5030238;28;20198;-80
2023/10/31 04:14:04;;;;;;;1.93;1.53;;;;;;;;;;5028135;28;20175;-80
2023/10/31 04:16:30;;;;;;;2.80;1.70;;;;;;;;;;5025664;28;20670;-80
2023/10/31 04:18:56;;;;;;;4.33;1.47;;;;;;;;;;5032750;28;20189;-81
2023/10/31 04:21:22;;;;;;;2.37;1.50;;;;;;;;;;5031194;28;20218;-81
2023/10/31 04:23:48;;;;;;;2.03;1.50;;;;;;;;;;5032936;28;20190;-81
2023/10/31 04:26:15;;;;;;;1.73;1.50;;;;;;;;;;5027888;28;20179;-80
2023/10/31 04:28:42;;;;;;;1.63;1.53;;;;;;;;;;5024190;28;20233;-81
2023/10/31 04:31:08;;;;;;;1.87;1.60;;;;;;;;;;5031119;28;20788;-80
2023/10/31 04:33:34;;;;;;;2.87;1.70;;;;;;;;;;5031937;28;20202;-82
2023/10/31 04:36:02;;;;;;;3.30;1.20;;;;;;;;;;5029911;28;20549;-81
2023/10/31 04:38:28;;;;;;;2.70;1.40;;;;;;;;;;5030052;28;20727;-81
2023/10/31 04:40:54;;;;;;;4.00;1.57;;;;;;;;;;5031996;28;20632;-80
2023/10/31 04:43:20;;;;;;;2.03;1.50;;;;;;;;;;5031052;28;20214;-80
2023/10/31 04:45:46;;;;;;;2.83;1.20;;;;;;;;;;5032401;28;20234;-80
2023/10/31 04:48:14;;;;;;;2.00;1.03;;;;;;;;;;5032018;28;20174;-81
2023/10/31 04:50:40;;;;;;;1.47;1.10;;;;;;;;;;5028265;28;20187;-81
2023/10/31 04:53:06;;;;;;;1.20;1.10;;;;;;;;;;5033045;28;20250;-80
2023/10/31 04:55:32;;;;;;;1.93;1.00;;;;;;;;;;5026009;28;20186;-80
2023/10/31 04:57:58;;;;;;;1.27;1.10;;;;;;;;;;5030852;28;20191;-80
2023/10/31 05:00:25;;;;;;;2.20;1.10;;;;;;;;;;5026474;28;20243;-80
2023/10/31 05:02:51;;;;;;;3.20;1.10;;;;;;;;;;5034414;28;20257;-83
2023/10/31 05:05:17;;;;;;;2.47;1.10;;;;;;;;;;5027271;28;20237;-80
2023/10/31 05:07:43;;;;;;;2.00;1.20;;;;;;;;;;5029309;28;20210;-80
2023/10/31 05:10:10;;;;;;;3.03;1.23;;;;;;;;;;5033296;28;20676;-81
2023/10/31 05:12:37;;;;;;;2.50;1.23;;;;;;;;;;5029147;28;20202;-80
2023/10/31 05:15:03;;;;;;;1.80;1.00;;;;;;;;;;5026845;28;20182;-80
2023/10/31 05:17:29;;;;;;;1.40;1.10;;;;;;;;;;5018277;28;20260;-81
2023/10/31 05:19:55;;;;;;;1.67;1.00;;;;;;;;;;5030105;28;20654;-81
2023/10/31 05:22:21;;;;;;;1.23;1.07;;;;;;;;;;5030881;28;20260;-81
2023/10/31 05:24:47;;;;;;;1.33;1.10;;;;;;;;;;5030603;28;20186;-81
2023/10/31 05:27:13;;;;;;;2.47;1.13;;;;;;;;;;5032896;28;20175;-80
2023/10/31 05:29:40;;;;;;;2.37;0.93;;;;;;;;;;5031346;28;20190;-80
2023/10/31 05:32:06;;;;;;;2.73;1.40;;;;;;;;;;5027933;28;20248;-80
2023/10/31 05:34:32;;;;;;;3.37;1.90;;;;;;;;;;5031084;28;20256;-80
2023/10/31 05:36:59;;;;;;;2.30;1.50;;;;;;;;;;5024980;28;20187;-81
2023/10/31 05:39:25;;;;;;;3.00;1.30;;;;;;;;;;5031187;28;20190;-80
2023/10/31 05:41:51;;;;;;;4.90;1.50;;;;;;;;;;5028306;28;20218;-81
2023/10/31 05:44:18;;;;;;;3.30;1.40;;;;;;;;;;5019793;28;20187;-81
2023/10/31 05:46:44;;;;;;;2.23;1.70;;;;;;;;;;5027905;28;20186;-81
2023/10/31 05:49:10;;;;;;;3.53;1.80;;;;;;;;;;5027851;28;20182;-80
2023/10/31 05:51:36;;;;;;;4.00;1.97;;;;;;;;;;5027934;28;20218;-80
2023/10/31 05:54:03;;;;;;;3.33;1.80;;;;;;;;;;5023260;28;20677;-82
2023/10/31 05:56:29;;;;;;;2.60;1.90;;;;;;;;;;5029121;28;20202;-81
2023/10/31 05:59:02;;;;;;;2.17;1.70;;;;;;;;;;5108462;27;20560;-74
2023/10/31 06:01:28;;;;;;;3.57;1.80;;;;;;;;;;5108354;28;20203;-74
2023/10/31 06:03:55;;;;;;;2.93;1.50;;;;;;;;;;5108519;28;20187;-74
2023/10/31 06:06:21;;;;;;;4.43;1.33;;;;;;;;;;5108489;28;20267;-74
2023/10/31 06:08:47;;;;;;;2.40;1.47;;;;;;;;;;5107687;28;20290;-74
2023/10/31 06:11:13;;;;;;;2.40;1.20;;;;;;;;;;5111367;28;20182;-75
2023/10/31 06:13:40;;;;;;;1.40;1.13;;;;;;;;;;5102320;28;20184;-78
2023/10/31 06:16:07;;;;;;;1.40;1.13;;;;;;;;;;5069595;28;20349;-77
2023/10/31 06:18:34;;;;;;;2.17;1.10;;;;;;;;;;5081095;28;20207;-77
2023/10/31 06:21:00;;;;;;;1.63;1.30;;;;;;;;;;5080155;28;20187;-75
2023/10/31 06:23:26;;;;;;;3.17;1.20;;;;;;;;;;5108231;28;20184;-77
2023/10/31 06:25:53;;;;;;;1.20;1.10;;;;;;;;;;5099264;28;20212;-77
2023/10/31 06:28:19;;;;;;;2.27;1.50;;;;;;;;;;5072662;28;20191;-76
2023/10/31 06:30:45;;;;;;;2.10;1.50;;;;;;;;;;5085535;28;20675;-76
2023/10/31 06:33:11;;;;;;;2.03;1.30;;;;;;;;;;5070280;28;20576;-76
2023/10/31 06:35:38;;;;;;;2.33;1.60;;;;;;;;;;5096103;28;20195;-77
2023/10/31 06:38:04;;;;;;;2.13;1.50;;;;;;;;;;5107335;28;20581;-74
2023/10/31 06:40:30;;;;;;;2.63;1.50;;;;;;;;;;5115518;28;20217;-74
2023/10/31 06:42:56;;;;;;;3.23;1.53;;;;;;;;;;5106038;28;20275;-74
2023/10/31 06:45:22;;;;;;;5.70;1.70;;;;;;;;;;5088949;28;20488;-74
2023/10/31 06:47:49;;;;;;;2.57;1.50;;;;;;;;;;5089448;28;20208;-74
2023/10/31 06:50:15;;;;;;;3.67;1.60;;;;;;;;;;5107556;28;20211;-74
2023/10/31 06:52:41;;;;;;;3.60;1.40;;;;;;;;;;5107654;28;20642;-74
2023/10/31 06:55:08;;;;;;;2.70;1.63;;;;;;;;;;5110665;28;20393;-74
2023/10/31 06:57:34;;;;;;;1.53;1.33;;;;;;;;;;5088977;28;20625;-74
2023/10/31 07:00:00;;;;;;;2.10;1.50;;;;;;;;;;5107168;28;20261;-74
2023/10/31 07:02:26;;;;;;;1.87;1.50;;;;;;;;;;5107359;28;20614;-74
2023/10/31 07:04:53;;;;;;;2.80;1.60;;;;;;;;;;5098955;28;20212;-74
2023/10/31 07:07:19;;;;;;;3.20;1.50;;;;;;;;;;5089342;28;20192;-74
2023/10/31 07:09:45;;;;;;;2.80;1.60;;;;;;;;;;5097535;28;20250;-74
2023/10/31 07:12:11;;;;;;;2.37;1.63;;;;;;;;;;5093553;28;20204;-74
2023/10/31 07:14:37;;;;;;;3.43;1.50;;;;;;;;;;5093605;28;20565;-74
2023/10/31 07:17:03;;;;;;;3.80;1.50;;;;;;;;;;5093365;28;20200;-74
2023/10/31 07:19:30;;;;;;;1.77;1.40;;;;;;;;;;5075333;28;20201;-74
2023/10/31 07:21:56;;;;;;;2.20;1.40;;;;;;;;;;5072292;28;20215;-74
2023/10/31 07:24:22;;;;;;;1.73;1.20;;;;;;;;;;5070436;28;20206;-74
2023/10/31 07:26:48;;;;;;;2.00;1.30;;;;;;;;;;5093082;28;20647;-74
2023/10/31 07:29:14;;;;;;;1.50;1.20;;;;;;;;;;5107624;28;20206;-74
2023/10/31 07:31:41;;;;;;;1.60;1.27;;;;;;;;;;5086267;28;20714;-74
2023/10/31 07:34:08;;;;;;;2.67;1.30;;;;;;;;;;5096700;28;20177;-74
2023/10/31 07:36:34;;;;;;;2.07;1.53;;;;;;;;;;5093097;28;20613;-74
2023/10/31 07:39:01;;;;;;;4.27;1.50;;;;;;;;;;5093031;28;20208;-74
2023/10/31 07:41:27;;;;;;;3.17;1.50;;;;;;;;;;5092875;28;20177;-74
2023/10/31 07:43:53;;;;;;;3.57;1.40;;;;;;;;;;5093320;28;20176;-75
2023/10/31 07:46:19;;;;;;;2.20;1.27;;;;;;;;;;5074772;28;20539;-74
2023/10/31 07:48:45;;;;;;;2.93;1.37;;;;;;;;;;5102540;28;20196;-74
2023/10/31 07:51:12;;;;;;;2.03;1.60;;;;;;;;;;5092737;28;20684;-74
2023/10/31 07:53:38;;;;;;;2.90;1.50;;;;;;;;;;5092640;28;20222;-74
2023/10/31 07:56:04;;;;;;;3.03;1.50;;;;;;;;;;5080624;28;20278;-74
2023/10/31 07:58:30;;;;;;;3.70;1.50;;;;;;;;;;5104896;28;20207;-74
2023/10/31 08:00:57;;;;;;;4.07;1.43;;;;;;;;;;5093623;28;20250;-74
2023/10/31 08:03:23;;;;;;;1.73;1.40;;;;;;;;;;5101099;28;20176;-74
2023/10/31 08:05:49;;;;;;;4.50;1.30;;;;;;;;;;5074587;28;20188;-74
2023/10/31 08:08:15;;;;;;;1.93;1.27;;;;;;;;;;5100789;28;20184;-74
2023/10/31 08:10:41;;;;;;;4.37;1.70;;;;;;;;;;5100681;28;20183;-75
2023/10/31 08:13:07;;;;;;;1.20;1.10;;;;;;;;;;5105439;28;20181;-74
2023/10/31 08:15:34;;;;;;;2.47;1.30;;;;;;;;;;5086268;28;20714;-74
2023/10/31 08:18:00;;;;;;;2.43;1.13;;;;;;;;;;5083933;28;20256;-74
2023/10/31 08:20:32;;;;;;;2.13;1.30;;;;;;;;;;5072853;28;20195;-74
2023/10/31 08:22:58;;;;;;;2.30;1.30;;;;;;;;;;5092142;28;20707;-75
2023/10/31 08:25:24;;;;;;;1.87;1.40;;;;;;;;;;5073958;28;20185;-75
2023/10/31 08:27:51;;;;;;;2.10;1.43;;;;;;;;;;5092083;28;20180;-74
2023/10/31 08:30:17;;;;;;;2.70;1.57;;;;;;;;;;5091774;28;20205;-74
2023/10/31 08:32:43;;;;;;;2.70;2.10;;;;;;;;;;5064219;28;20192;-74
2023/10/31 08:35:09;;;;;;;3.00;2.00;;;;;;;;;;5084871;28;20697;-74
2023/10/31 08:37:36;;;;;;;2.47;2.00;;;;;;;;;;5091653;28;20210;-74
2023/10/31 08:40:03;;;;;;;2.77;1.90;;;;;;;;;;5088212;28;20201;-74
2023/10/31 08:42:30;;;;;;;2.40;1.70;;;;;;;;;;5094894;28;20180;-74
2023/10/31 08:44:56;;;;;;;3.30;1.90;;;;;;;;;;5091452;28;20370;-74
2023/10/31 08:47:23;;;;;;;3.93;1.50;;;;;;;;;;5091549;28;20183;-75
2023/10/31 08:49:49;;;;;;;3.47;1.70;;;;;;;;;;5091350;28;20208;-74
2023/10/31 08:52:15;;;;;;;2.77;1.70;;;;;;;;;;5091604;28;20187;-74
2023/10/31 08:54:41;;;;;;;3.47;2.00;;;;;;;;;;5092408;28;20303;-75
2023/10/31 08:57:07;;;;;;;2.73;1.70;;;;;;;;;;5103068;28;20298;-74
2023/10/31 08:59:33;;;;;;;2.57;1.60;;;;;;;;;;5098892;28;20797;-74
2023/10/31 09:01:59;;;;;;;4.60;1.90;;;;;;;;;;5073416;28;20192;-74
2023/10/31 09:04:26;;;;;;;4.37;1.80;;;;;;;;;;5098507;28;20180;-74
2023/10/31 09:06:52;;;;;;;2.73;1.80;;;;;;;;;;5109526;28;20207;-74
2023/10/31 09:09:18;;;;;;;6.63;2.40;;;;;;;;;;5088850;28;20196;-74
2023/10/31 09:11:44;;;;;;;3.70;2.23;;;;;;;;;;5091475;28;20183;-74
2023/10/31 09:14:11;;;;;;;3.87;1.73;;;;;;;;;;5091226;28;20326;-74
2023/10/31 09:16:37;;;;;;;4.20;2.10;;;;;;;;;;5099522;28;20256;-74
2023/10/31 09:19:03;;;;;;;3.67;1.97;;;;;;;;;;5087451;28;20217;-74
2023/10/31 09:21:29;;;;;;;3.43;1.80;;;;;;;;;;5078255;28;20177;-74
2023/10/31 09:23:55;;;;;;;4.00;1.90;;;;;;;;;;5091346;28;20279;-74
2023/10/31 09:26:21;;;;;;;3.20;1.80;;;;;;;;;;5106425;28;20215;-75
2023/10/31 09:28:49;;;;;;;3.63;1.60;;;;;;;;;;5092886;28;20220;-75
2023/10/31 09:31:19;;;;;;;3.10;1.67;;;;;;;;;;5090895;28;20185;-75
2023/10/31 09:33:46;;;;;;;2.90;1.80;;;;;;;;;;5090687;28;20565;-75
2023/10/31 09:36:13;;;;;;;3.23;1.80;;;;;;;;;;5082508;28;20693;-75
2023/10/31 09:38:39;;;;;;;3.27;1.67;;;;;;;;;;5091899;28;20207;-74
2023/10/31 09:41:06;;;;;;;3.80;1.60;;;;;;;;;;5086785;28;20685;-75
2023/10/31 09:43:32;;;;;;;3.57;1.80;;;;;;;;;;5086334;28;20204;-75
2023/10/31 09:46:03;;;;;;;4.23;2.30;;;;;;;;;;5073250;28;20241;-74
2023/10/31 09:48:29;;;;;;;4.70;2.20;;;;;;;;;;5090716;28;20204;-74
2023/10/31 09:50:56;;;;;;;4.00;1.77;;;;;;;;;;5090937;28;20226;-75
2023/10/31 09:53:22;;;;;;;2.10;1.60;;;;;;;;;;5090759;28;20185;-75
2023/10/31 09:55:49;;;;;;;3.07;1.70;;;;;;;;;;5092889;28;20275;-75
2023/10/31 09:58:15;;;;;;;4.53;1.93;;;;;;;;;;5083076;28;20215;-75
2023/10/31 10:00:41;;;;;;;3.43;1.73;;;;;;;;;;5091351;28;20188;-74
2023/10/31 10:03:10;;;;;;;3.60;1.83;;;;;;;;;;5072464;28;20182;-74
2023/10/31 10:05:37;;;;;;;3.40;1.60;;;;;;;;;;5098587;28;20267;-74
2023/10/31 10:08:07;;;;;;;3.47;1.50;;;;;;;;;;5093288;28;20239;-75
2023/10/31 10:10:34;;;;;;;2.17;1.30;;;;;;;;;;5092848;28;20258;-75
2023/10/31 10:13:02;;;;;;;3.33;1.70;;;;;;;;;;5070951;28;20180;-74
2023/10/31 10:15:29;;;;;;;5.77;1.60;;;;;;;;;;5090636;28;20195;-74
2023/10/31 10:17:55;;;;;;;4.07;1.70;;;;;;;;;;5094714;28;20701;-75
2023/10/31 10:20:22;;;;;;;5.30;1.40;;;;;;;;;;5095025;28;20280;-74
2023/10/31 10:22:48;;;;;;;3.47;1.70;;;;;;;;;;5092120;28;20176;-74
2023/10/31 10:25:15;;;;;;;2.10;1.33;;;;;;;;;;5076801;28;20177;-74
2023/10/31 10:27:42;;;;;;;5.10;1.30;;;;;;;;;;5096906;28;20718;-75
2023/10/31 10:30:09;;;;;;;2.77;1.33;;;;;;;;;;5090393;28;20208;-74
2023/10/31 10:32:35;;;;;;;3.37;1.50;;;;;;;;;;5079868;28;20199;-75
2023/10/31 10:35:01;;;;;;;6.27;1.43;;;;;;;;;;5090444;28;20255;-74
2023/10/31 10:37:30;;;;;;;1.83;1.30;;;;;;;;;;5072429;28;20239;-75
2023/10/31 10:39:59;;;;;;;2.43;1.30;;;;;;;;;;5090166;28;20635;-74
2023/10/31 10:42:40;;;;;;;3.03;1.40;;;;;;;;;;5098836;28;20231;-75
2023/10/31 10:45:07;;;;;;;4.20;1.70;;;;;;;;;;5096896;28;20241;-75
2023/10/31 10:47:35;;;;;;;2.73;1.57;;;;;;;;;;5106424;28;20180;-75
2023/10/31 10:50:02;;;;;;;3.80;1.60;;;;;;;;;;5099467;28;20675;-74
2023/10/31 10:52:39;;;;;;;3.40;1.80;;;;;;;;;;5093533;28;20176;-74
2023/10/31 10:55:09;;;;;;;3.43;1.67;;;;;;;;;;5090607;28;20188;-75
2023/10/31 10:57:43;;;;;;;3.10;1.70;;;;;;;;;;5075550;28;20216;-75
2023/10/31 11:00:12;;;;;;;6.03;2.10;;;;;;;;;;5075487;28;20220;-75
2023/10/31 11:02:42;;;;;;;3.37;1.70;;;;;;;;;;5092461;28;20240;-75
2023/10/31 11:05:09;;;;;;;2.13;1.40;;;;;;;;;;5093674;28;20262;-75
2023/10/31 11:07:36;;;;;;;6.60;1.70;;;;;;;;;;5093660;28;20525;-75
2023/10/31 11:10:02;;;;;;;3.40;1.50;;;;;;;;;;5067449;28;20208;-75
2023/10/31 11:12:32;;;;;;;4.13;1.50;;;;;;;;;;5083794;28;20181;-74
2023/10/31 11:15:00;;;;;;;2.83;1.57;;;;;;;;;;5086828;28;20286;-75
2023/10/31 11:17:37;;;;;;;2.97;1.60;;;;;;;;;;5098528;28;20210;-75
2023/10/31 11:20:03;;;;;;;4.60;1.70;;;;;;;;;;5064280;28;20208;-74
2023/10/31 11:22:44;;;;;;;3.83;1.80;;;;;;;;;;5075142;28;20724;-75
2023/10/31 11:25:11;;;;;;;3.93;1.60;;;;;;;;;;5068065;28;20180;-75
2023/10/31 11:27:37;;;;;;;3.70;1.60;;;;;;;;;;5093291;28;20267;-74
2023/10/31 11:30:07;;;;;;;3.90;1.70;;;;;;;;;;5097782;28;20690;-75
2023/10/31 11:32:33;;;;;;;3.53;1.60;;;;;;;;;;5093137;28;20195;-75
2023/10/31 11:35:01;;;;;;;7.70;1.77;;;;;;;;;;5084295;28;20184;-75
2023/10/31 11:37:33;;;;;;;3.90;1.80;;;;;;;;;;5086255;28;20212;-75
2023/10/31 11:40:15;;;;;;;5.17;1.77;;;;;;;;;;5092398;28;20557;-75
2023/10/31 11:42:42;;;;;;;3.00;1.50;;;;;;;;;;5090544;28;20219;-75
2023/10/31 11:45:08;;;;;;;1.90;1.30;;;;;;;;;;5096928;28;20192;-75
2023/10/31 11:47:47;;;;;;;3.13;1.40;;;;;;;;;;5089499;28;20216;-75
2023/10/31 11:50:13;;;;;;;4.33;1.17;;;;;;;;;;5071310;28;20196;-75
2023/10/31 11:52:40;;;;;;;3.37;1.40;;;;;;;;;;5092258;28;20236;-75
2023/10/31 11:55:10;;;;;;;4.00;1.20;;;;;;;;;;5092625;28;20271;-75
2023/10/31 11:57:36;;;;;;;3.17;1.30;;;;;;;;;;5074361;28;20216;-75
2023/10/31 12:00:04;;;;;;;3.20;1.13;;;;;;;;;;5092358;28;20197;-75
2023/10/31 12:02:38;;;;;;;3.83;1.47;;;;;;;;;;5097619;28;20180;-75
2023/10/31 12:05:12;;;;;;;2.87;1.23;;;;;;;;;;5103890;28;20494;-75
2023/10/31 12:07:45;;;;;;;3.00;1.53;;;;;;;;;;5097570;28;20191;-75
2023/10/31 12:10:11;;;;;;;3.73;1.30;;;;;;;;;;5087136;28;20298;-75
2023/10/31 12:12:38;;;;;;;2.90;1.53;;;;;;;;;;5074363;28;20177;-75
2023/10/31 12:15:07;;;;;;;3.77;1.40;;;;;;;;;;5093854;28;20205;-75
2023/10/31 12:17:34;;;;;;;3.67;1.40;;;;;;;;;;5096044;28;20216;-75
2023/10/31 12:20:10;;;;;;;3.77;1.60;;;;;;;;;;5091677;28;20226;-74
2023/10/31 12:22:37;;;;;;;2.73;1.43;;;;;;;;;;5092130;28;20674;-75
2023/10/31 12:25:04;;;;;;;4.63;1.70;;;;;;;;;;5091873;28;20189;-75
2023/10/31 12:27:48;;;;;;;3.33;1.33;;;;;;;;;;5092140;28;20188;-75
2023/10/31 12:30:15;;;;;;;2.83;1.50;;;;;;;;;;5088167;28;20222;-75
2023/10/31 12:32:42;;;;;;;4.83;1.83;;;;;;;;;;5082060;28;20187;-75
2023/10/31 12:35:16;;;;;;;4.37;1.30;;;;;;;;;;5079137;28;20189;-75
2023/10/31 12:37:46;;;;;;;4.93;1.50;;;;;;;;;;5091561;28;20200;-75
2023/10/31 12:40:17;;;;;;;3.73;1.60;;;;;;;;;;5105214;28;20200;-75
2023/10/31 12:42:44;;;;;;;3.70;1.50;;;;;;;;;;5062736;28;20173;-75
2023/10/31 12:45:12;;;;;;;2.90;1.40;;;;;;;;;;5096435;28;20271;-75
2023/10/31 12:47:38;;;;;;;3.10;1.27;;;;;;;;;;5091505;28;20578;-75
2023/10/31 12:50:10;;;;;;;1.97;1.23;;;;;;;;;;5092499;28;20200;-75
2023/10/31 12:53:06;;;;;;;2.33;1.60;;;;;;;;;;5065227;28;20208;-75
2023/10/31 12:55:38;;;;;;;4.30;1.40;;;;;;;;;;5037651;28;20200;-75
2023/10/31 12:58:04;;;;;;;3.47;1.30;;;;;;;;;;5095578;28;20239;-75
2023/10/31 13:00:32;;;;;;;2.60;1.30;;;;;;;;;;5092058;28;20769;-75
2023/10/31 13:03:01;;;;;;;2.30;1.20;;;;;;;;;;5104828;28;20486;-75
2023/10/31 13:05:28;;;;;;;2.60;1.10;;;;;;;;;;5091989;28;20554;-78
2023/10/31 13:07:55;;;;;;;3.57;1.30;;;;;;;;;;5062060;28;20665;-77
2023/10/31 13:10:25;;;;;;;3.33;1.40;;;;;;;;;;5065380;28;20207;-76
2023/10/31 13:12:52;;;;;;;1.70;1.23;;;;;;;;;;5073440;28;20684;-76
2023/10/31 13:15:19;;;;;;;2.60;1.40;;;;;;;;;;5106781;28;20199;-79
2023/10/31 13:17:45;;;;;;;4.43;1.67;;;;;;;;;;5060716;28;20213;-82
2023/10/31 13:20:12;;;;;;;3.87;1.63;;;;;;;;;;5069031;28;20679;-79
2023/10/31 13:22:39;;;;;;;2.70;1.53;;;;;;;;;;5074080;28;20190;-77
2023/10/31 13:25:07;;;;;;;2.47;1.47;;;;;;;;;;5083063;28;20204;-76
2023/10/31 13:27:37;;;;;;;6.53;1.80;;;;;;;;;;5052483;28;20603;-77
2023/10/31 13:30:04;;;;;;;2.70;1.47;;;;;;;;;;5062969;28;20617;-77
2023/10/31 13:32:31;;;;;;;4.40;1.50;;;;;;;;;;5063198;28;20192;-77
2023/10/31 13:34:57;;;;;;;5.03;1.40;;;;;;;;;;5085369;28;20707;-77
2023/10/31 13:37:23;;;;;;;2.70;1.40;;;;;;;;;;5063053;28;20210;-77
2023/10/31 13:39:49;;;;;;;4.07;1.47;;;;;;;;;;5084657;28;20207;-77
2023/10/31 13:42:16;;;;;;;3.17;1.30;;;;;;;;;;5081429;28;20181;-77
2023/10/31 13:44:43;;;;;;;3.60;1.40;;;;;;;;;;5069146;28;20238;-79
2023/10/31 13:47:09;;;;;;;3.70;1.40;;;;;;;;;;5079230;28;20173;-78
2023/10/31 13:49:37;;;;;;;2.47;1.60;;;;;;;;;;5088553;28;20180;-78
2023/10/31 13:52:03;;;;;;;4.17;1.20;;;;;;;;;;5094004;23;20268;-80
2023/10/31 13:54:30;;;;;;;3.07;1.20;;;;;;;;;;5029776;28;20193;-80
2023/10/31 13:56:56;;;;;;;2.77;1.57;;;;;;;;;;5030050;28;20562;-79
2023/10/31 13:59:22;;;;;;;2.63;1.30;;;;;;;;;;5029752;28;20232;-81
2023/10/31 14:01:48;;;;;;;3.03;1.37;;;;;;;;;;5034895;28;20302;-82
2023/10/31 14:04:15;;;;;;;2.47;1.50;;;;;;;;;;5035056;28;20191;-80
2023/10/31 14:06:41;;;;;;;2.03;1.20;;;;;;;;;;5004541;28;20238;-79
2023/10/31 14:09:08;;;;;;;3.37;1.23;;;;;;;;;;5031874;28;20197;-80
2023/10/31 14:11:34;;;;;;;2.77;1.30;;;;;;;;;;5013081;28;20362;-79
2023/10/31 14:14:06;;;;;;;3.23;1.30;;;;;;;;;;5028851;28;20187;-82
2023/10/31 14:16:35;;;;;;;3.53;1.30;;;;;;;;;;5014370;28;20184;-79
2023/10/31 14:19:02;;;;;;;2.90;1.13;;;;;;;;;;5026335;28;20222;-81
2023/10/31 14:21:28;;;;;;;2.80;1.20;;;;;;;;;;5016119;28;20208;-79
2023/10/31 14:23:55;;;;;;;2.47;1.20;;;;;;;;;;5042618;28;20691;-82
2023/10/31 14:26:21;;;;;;;1.90;1.30;;;;;;;;;;5039591;28;20174;-80
2023/10/31 14:28:47;;;;;;;3.37;1.40;;;;;;;;;;5014167;28;20194;-80
2023/10/31 14:31:14;;;;;;;2.30;1.20;;;;;;;;;;5026165;28;20193;-79
2023/10/31 14:33:40;;;;;;;2.63;1.40;;;;;;;;;;5038887;28;20244;-79
2023/10/31 14:36:08;;;;;;;1.83;1.20;;;;;;;;;;5034727;28;20221;-80
2023/10/31 14:38:34;;;;;;;5.50;2.03;;;;;;;;;;5023861;28;20673;-79
2023/10/31 14:41:00;;;;;;;2.90;1.70;;;;;;;;;;5047377;28;20182;-79